sensor_id;sensor_type;location;lat;lon;timestamp;P1;durP1;ratioP1;P2;durP2;ratioP2
52274;SDS011;38228;50.940;4.024;2023-11-22T00:01:21;48.58;;;23.38;;
52274;SDS011;38228;50.940;4.024;2023-11-22T00:03:47;42.05;;;22.60;;
52274;SDS011;38228;50.940;4.024;2023-11-22T00:06:13;47.75;;;22.77;;
52274;SDS011;38228;50.940;4.024;2023-11-22T00:08:39;40.55;;;22.23;;
52274;SDS011;38228;50.940;4.024;2023-11-22T00:11:05;43.58;;;22.65;;
52274;SDS011;38228;50.940;4.024;2023-11-22T00:13:30;40.67;;;21.95;;
52274;SDS011;38228;50.940;4.024;2023-11-22T00:15:57;43.28;;;22.05;;
52274;SDS011;38228;50.940;4.024;2023-11-22T00:18:23;42.85;;;22.63;;
52274;SDS011;38228;50.940;4.024;2023-11-22T00:20:49;44.20;;;22.58;;
52274;SDS011;38228;50.940;4.024;2023-11-22T00:23:15;46.65;;;23.52;;
52274;SDS011;38228;50.940;4.024;2023-11-22T00:25:41;42.88;;;22.08;;
52274;SDS011;38228;50.940;4.024;2023-11-22T00:28:07;41.90;;;22.13;;
52274;SDS011;38228;50.940;4.024;2023-11-22T00:30:33;46.15;;;23.20;;
52274;SDS011;38228;50.940;4.024;2023-11-22T00:32:58;41.67;;;21.67;;
52274;SDS011;38228;50.940;4.024;2023-11-22T00:35:24;46.47;;;22.33;;
52274;SDS011;38228;50.940;4.024;2023-11-22T00:37:50;43.60;;;22.52;;
52274;SDS011;38228;50.940;4.024;2023-11-22T00:40:15;46.17;;;21.48;;
52274;SDS011;38228;50.940;4.024;2023-11-22T00:42:41;45.05;;;22.38;;
52274;SDS011;38228;50.940;4.024;2023-11-22T00:45:08;43.55;;;21.95;;
52274;SDS011;38228;50.940;4.024;2023-11-22T00:47:35;46.90;;;23.15;;
52274;SDS011;38228;50.940;4.024;2023-11-22T00:50:01;41.65;;;21.38;;
52274;SDS011;38228;50.940;4.024;2023-11-22T00:52:29;41.17;;;21.83;;
52274;SDS011;38228;50.940;4.024;2023-11-22T00:54:55;43.20;;;21.60;;
52274;SDS011;38228;50.940;4.024;2023-11-22T00:57:21;39.55;;;21.05;;
52274;SDS011;38228;50.940;4.024;2023-11-22T00:59:48;44.25;;;22.40;;
52274;SDS011;38228;50.940;4.024;2023-11-22T01:02:14;45.60;;;21.92;;
52274;SDS011;38228;50.940;4.024;2023-11-22T01:04:40;53.05;;;22.08;;
52274;SDS011;38228;50.940;4.024;2023-11-22T01:07:06;46.25;;;21.63;;
52274;SDS011;38228;50.940;4.024;2023-11-22T01:09:32;44.58;;;22.35;;
52274;SDS011;38228;50.940;4.024;2023-11-22T01:11:59;45.80;;;23.65;;
52274;SDS011;38228;50.940;4.024;2023-11-22T01:14:24;44.50;;;22.90;;
52274;SDS011;38228;50.940;4.024;2023-11-22T01:16:53;47.13;;;22.35;;
52274;SDS011;38228;50.940;4.024;2023-11-22T01:19:19;43.70;;;23.10;;
52274;SDS011;38228;50.940;4.024;2023-11-22T01:21:45;41.95;;;21.48;;
52274;SDS011;38228;50.940;4.024;2023-11-22T01:24:11;46.67;;;22.17;;
52274;SDS011;38228;50.940;4.024;2023-11-22T01:26:37;47.63;;;22.48;;
52274;SDS011;38228;50.940;4.024;2023-11-22T01:29:03;47.60;;;22.67;;
52274;SDS011;38228;50.940;4.024;2023-11-22T01:31:29;49.95;;;23.10;;
52274;SDS011;38228;50.940;4.024;2023-11-22T01:33:55;45.70;;;22.33;;
52274;SDS011;38228;50.940;4.024;2023-11-22T01:36:21;48.80;;;23.35;;
52274;SDS011;38228;50.940;4.024;2023-11-22T01:38:46;49.97;;;22.33;;
52274;SDS011;38228;50.940;4.024;2023-11-22T01:41:12;45.30;;;22.40;;
52274;SDS011;38228;50.940;4.024;2023-11-22T01:43:38;48.95;;;22.75;;
52274;SDS011;38228;50.940;4.024;2023-11-22T01:46:09;43.45;;;21.40;;
52274;SDS011;38228;50.940;4.024;2023-11-22T01:48:40;45.22;;;23.08;;
52274;SDS011;38228;50.940;4.024;2023-11-22T01:51:06;43.17;;;20.98;;
52274;SDS011;38228;50.940;4.024;2023-11-22T01:53:33;42.05;;;20.88;;
52274;SDS011;38228;50.940;4.024;2023-11-22T01:55:59;45.75;;;21.35;;
52274;SDS011;38228;50.940;4.024;2023-11-22T01:58:26;42.10;;;22.02;;
52274;SDS011;38228;50.940;4.024;2023-11-22T02:00:52;41.83;;;21.85;;
52274;SDS011;38228;50.940;4.024;2023-11-22T02:03:18;41.55;;;20.70;;
52274;SDS011;38228;50.940;4.024;2023-11-22T02:05:44;39.88;;;20.88;;
52274;SDS011;38228;50.940;4.024;2023-11-22T02:08:10;37.17;;;19.73;;
52274;SDS011;38228;50.940;4.024;2023-11-22T02:10:37;43.67;;;21.73;;
52274;SDS011;38228;50.940;4.024;2023-11-22T02:13:06;43.92;;;21.30;;
52274;SDS011;38228;50.940;4.024;2023-11-22T02:15:35;43.85;;;21.75;;
52274;SDS011;38228;50.940;4.024;2023-11-22T02:18:01;41.30;;;20.85;;
52274;SDS011;38228;50.940;4.024;2023-11-22T02:20:28;41.70;;;20.85;;
52274;SDS011;38228;50.940;4.024;2023-11-22T02:22:54;44.95;;;21.08;;
52274;SDS011;38228;50.940;4.024;2023-11-22T02:25:19;42.10;;;20.83;;
52274;SDS011;38228;50.940;4.024;2023-11-22T02:27:46;39.53;;;19.45;;
52274;SDS011;38228;50.940;4.024;2023-11-22T02:30:11;40.63;;;20.15;;
52274;SDS011;38228;50.940;4.024;2023-11-22T02:32:37;39.45;;;21.00;;
52274;SDS011;38228;50.940;4.024;2023-11-22T02:35:04;35.15;;;19.70;;
52274;SDS011;38228;50.940;4.024;2023-11-22T02:37:32;34.80;;;19.48;;
52274;SDS011;38228;50.940;4.024;2023-11-22T02:42:34;37.53;;;18.73;;
52274;SDS011;38228;50.940;4.024;2023-11-22T02:45:00;38.58;;;19.65;;
52274;SDS011;38228;50.940;4.024;2023-11-22T02:47:26;42.25;;;20.67;;
52274;SDS011;38228;50.940;4.024;2023-11-22T02:49:52;45.40;;;21.02;;
52274;SDS011;38228;50.940;4.024;2023-11-22T02:52:20;35.75;;;18.60;;
52274;SDS011;38228;50.940;4.024;2023-11-22T02:54:46;106.15;;;21.58;;
52274;SDS011;38228;50.940;4.024;2023-11-22T02:57:12;41.75;;;18.52;;
52274;SDS011;38228;50.940;4.024;2023-11-22T02:59:41;38.40;;;18.80;;
52274;SDS011;38228;50.940;4.024;2023-11-22T03:02:07;72.47;;;20.52;;
52274;SDS011;38228;50.940;4.024;2023-11-22T03:04:33;34.53;;;19.08;;
52274;SDS011;38228;50.940;4.024;2023-11-22T03:06:59;32.80;;;18.15;;
52274;SDS011;38228;50.940;4.024;2023-11-22T03:09:25;38.47;;;18.70;;
52274;SDS011;38228;50.940;4.024;2023-11-22T03:11:51;39.38;;;19.77;;
52274;SDS011;38228;50.940;4.024;2023-11-22T03:14:17;38.15;;;19.42;;
52274;SDS011;38228;50.940;4.024;2023-11-22T03:16:44;38.70;;;19.65;;
52274;SDS011;38228;50.940;4.024;2023-11-22T03:19:10;37.30;;;18.60;;
52274;SDS011;38228;50.940;4.024;2023-11-22T03:21:38;37.45;;;18.70;;
52274;SDS011;38228;50.940;4.024;2023-11-22T03:24:04;37.58;;;18.55;;
52274;SDS011;38228;50.940;4.024;2023-11-22T03:26:31;38.30;;;19.08;;
52274;SDS011;38228;50.940;4.024;2023-11-22T03:28:56;45.92;;;21.30;;
52274;SDS011;38228;50.940;4.024;2023-11-22T03:31:22;47.72;;;21.55;;
52274;SDS011;38228;50.940;4.024;2023-11-22T03:33:48;43.53;;;20.83;;
52274;SDS011;38228;50.940;4.024;2023-11-22T03:36:13;42.10;;;20.42;;
52274;SDS011;38228;50.940;4.024;2023-11-22T03:38:39;40.67;;;20.63;;
52274;SDS011;38228;50.940;4.024;2023-11-22T03:41:05;51.38;;;22.00;;
52274;SDS011;38228;50.940;4.024;2023-11-22T03:43:31;53.95;;;23.95;;
52274;SDS011;38228;50.940;4.024;2023-11-22T03:45:56;56.38;;;24.15;;
52274;SDS011;38228;50.940;4.024;2023-11-22T03:48:22;50.50;;;24.00;;
52274;SDS011;38228;50.940;4.024;2023-11-22T03:50:51;165.57;;;26.70;;
52274;SDS011;38228;50.940;4.024;2023-11-22T03:53:17;58.97;;;20.95;;
52274;SDS011;38228;50.940;4.024;2023-11-22T03:55:45;39.38;;;20.42;;
52274;SDS011;38228;50.940;4.024;2023-11-22T03:58:11;44.47;;;20.27;;
52274;SDS011;38228;50.940;4.024;2023-11-22T04:00:37;38.45;;;18.55;;
52274;SDS011;38228;50.940;4.024;2023-11-22T04:03:03;46.42;;;20.55;;
52274;SDS011;38228;50.940;4.024;2023-11-22T04:05:28;40.30;;;19.95;;
52274;SDS011;38228;50.940;4.024;2023-11-22T04:07:54;48.38;;;20.67;;
52274;SDS011;38228;50.940;4.024;2023-11-22T04:10:21;42.88;;;19.15;;
52274;SDS011;38228;50.940;4.024;2023-11-22T04:12:47;39.85;;;19.50;;
52274;SDS011;38228;50.940;4.024;2023-11-22T04:15:13;39.70;;;19.10;;
52274;SDS011;38228;50.940;4.024;2023-11-22T04:17:39;40.72;;;19.10;;
52274;SDS011;38228;50.940;4.024;2023-11-22T04:20:06;39.85;;;19.73;;
52274;SDS011;38228;50.940;4.024;2023-11-22T04:22:36;42.33;;;20.00;;
52274;SDS011;38228;50.940;4.024;2023-11-22T04:25:02;41.08;;;19.13;;
52274;SDS011;38228;50.940;4.024;2023-11-22T04:27:29;38.47;;;19.55;;
52274;SDS011;38228;50.940;4.024;2023-11-22T04:29:55;37.85;;;19.67;;
52274;SDS011;38228;50.940;4.024;2023-11-22T04:32:20;38.15;;;18.75;;
52274;SDS011;38228;50.940;4.024;2023-11-22T04:34:49;39.97;;;19.20;;
52274;SDS011;38228;50.940;4.024;2023-11-22T04:37:14;39.05;;;19.58;;
52274;SDS011;38228;50.940;4.024;2023-11-22T04:39:40;43.55;;;20.50;;
52274;SDS011;38228;50.940;4.024;2023-11-22T04:42:06;46.30;;;21.02;;
52274;SDS011;38228;50.940;4.024;2023-11-22T04:44:32;52.13;;;22.80;;
52274;SDS011;38228;50.940;4.024;2023-11-22T04:46:57;57.05;;;24.02;;
52274;SDS011;38228;50.940;4.024;2023-11-22T04:49:26;51.38;;;22.42;;
52274;SDS011;38228;50.940;4.024;2023-11-22T04:51:52;55.28;;;23.25;;
52274;SDS011;38228;50.940;4.024;2023-11-22T04:54:18;58.03;;;24.80;;
52274;SDS011;38228;50.940;4.024;2023-11-22T04:56:43;57.85;;;24.45;;
52274;SDS011;38228;50.940;4.024;2023-11-22T04:59:09;55.08;;;23.85;;
52274;SDS011;38228;50.940;4.024;2023-11-22T05:01:35;51.42;;;23.17;;
52274;SDS011;38228;50.940;4.024;2023-11-22T05:04:01;47.65;;;21.98;;
52274;SDS011;38228;50.940;4.024;2023-11-22T05:06:27;50.58;;;23.15;;
52274;SDS011;38228;50.940;4.024;2023-11-22T05:08:54;50.47;;;22.65;;
52274;SDS011;38228;50.940;4.024;2023-11-22T05:11:20;53.05;;;22.95;;
52274;SDS011;38228;50.940;4.024;2023-11-22T05:13:46;45.15;;;21.45;;
52274;SDS011;38228;50.940;4.024;2023-11-22T05:16:12;42.30;;;21.10;;
52274;SDS011;38228;50.940;4.024;2023-11-22T05:18:38;48.50;;;20.98;;
52274;SDS011;38228;50.940;4.024;2023-11-22T05:21:04;45.95;;;21.70;;
52274;SDS011;38228;50.940;4.024;2023-11-22T05:23:30;41.53;;;20.75;;
52274;SDS011;38228;50.940;4.024;2023-11-22T05:25:58;39.67;;;19.38;;
52274;SDS011;38228;50.940;4.024;2023-11-22T05:28:27;41.80;;;20.60;;
52274;SDS011;38228;50.940;4.024;2023-11-22T05:30:53;45.15;;;20.92;;
52274;SDS011;38228;50.940;4.024;2023-11-22T05:33:19;42.38;;;21.08;;
52274;SDS011;38228;50.940;4.024;2023-11-22T05:35:44;46.88;;;22.15;;
52274;SDS011;38228;50.940;4.024;2023-11-22T05:38:10;39.00;;;20.85;;
52274;SDS011;38228;50.940;4.024;2023-11-22T05:40:37;39.63;;;20.70;;
52274;SDS011;38228;50.940;4.024;2023-11-22T05:43:03;36.42;;;18.42;;
52274;SDS011;38228;50.940;4.024;2023-11-22T05:45:29;42.95;;;20.05;;
52274;SDS011;38228;50.940;4.024;2023-11-22T05:47:55;41.42;;;20.13;;
52274;SDS011;38228;50.940;4.024;2023-11-22T05:50:21;42.67;;;19.90;;
52274;SDS011;38228;50.940;4.024;2023-11-22T05:52:47;38.47;;;20.13;;
52274;SDS011;38228;50.940;4.024;2023-11-22T05:55:13;39.03;;;20.15;;
52274;SDS011;38228;50.940;4.024;2023-11-22T05:57:39;44.08;;;21.27;;
52274;SDS011;38228;50.940;4.024;2023-11-22T06:00:06;37.20;;;19.58;;
52274;SDS011;38228;50.940;4.024;2023-11-22T06:02:32;42.22;;;21.02;;
52274;SDS011;38228;50.940;4.024;2023-11-22T06:04:58;41.60;;;20.48;;
52274;SDS011;38228;50.940;4.024;2023-11-22T06:07:25;40.75;;;20.45;;
52274;SDS011;38228;50.940;4.024;2023-11-22T06:09:51;40.17;;;20.25;;
52274;SDS011;38228;50.940;4.024;2023-11-22T06:12:16;38.40;;;19.80;;
52274;SDS011;38228;50.940;4.024;2023-11-22T06:14:42;38.50;;;20.15;;
52274;SDS011;38228;50.940;4.024;2023-11-22T06:17:08;37.55;;;19.58;;
52274;SDS011;38228;50.940;4.024;2023-11-22T06:19:33;34.83;;;18.75;;
52274;SDS011;38228;50.940;4.024;2023-11-22T06:21:59;40.20;;;20.08;;
52274;SDS011;38228;50.940;4.024;2023-11-22T06:24:26;35.92;;;19.38;;
52274;SDS011;38228;50.940;4.024;2023-11-22T06:26:52;36.70;;;20.02;;
52274;SDS011;38228;50.940;4.024;2023-11-22T06:29:18;36.72;;;18.88;;
52274;SDS011;38228;50.940;4.024;2023-11-22T06:31:45;45.22;;;20.90;;
52274;SDS011;38228;50.940;4.024;2023-11-22T06:34:11;39.95;;;19.92;;
52274;SDS011;38228;50.940;4.024;2023-11-22T06:36:37;42.25;;;21.55;;
52274;SDS011;38228;50.940;4.024;2023-11-22T06:39:03;42.30;;;20.40;;
52274;SDS011;38228;50.940;4.024;2023-11-22T06:41:30;40.42;;;20.38;;
52274;SDS011;38228;50.940;4.024;2023-11-22T06:43:56;44.17;;;21.30;;
52274;SDS011;38228;50.940;4.024;2023-11-22T06:46:21;41.83;;;21.48;;
52274;SDS011;38228;50.940;4.024;2023-11-22T06:48:48;46.47;;;21.73;;
52274;SDS011;38228;50.940;4.024;2023-11-22T06:51:15;42.92;;;21.73;;
52274;SDS011;38228;50.940;4.024;2023-11-22T06:53:41;43.65;;;21.95;;
52274;SDS011;38228;50.940;4.024;2023-11-22T06:56:06;46.53;;;23.75;;
52274;SDS011;38228;50.940;4.024;2023-11-22T06:58:32;52.63;;;24.27;;
52274;SDS011;38228;50.940;4.024;2023-11-22T07:00:58;50.42;;;23.60;;
52274;SDS011;38228;50.940;4.024;2023-11-22T07:03:23;50.83;;;22.35;;
52274;SDS011;38228;50.940;4.024;2023-11-22T07:05:49;47.25;;;22.45;;
52274;SDS011;38228;50.940;4.024;2023-11-22T07:08:15;44.63;;;22.85;;
52274;SDS011;38228;50.940;4.024;2023-11-22T07:10:45;45.40;;;21.65;;
52274;SDS011;38228;50.940;4.024;2023-11-22T07:13:11;48.20;;;22.52;;
52274;SDS011;38228;50.940;4.024;2023-11-22T07:15:38;44.50;;;22.85;;
52274;SDS011;38228;50.940;4.024;2023-11-22T07:18:04;46.13;;;23.63;;
52274;SDS011;38228;50.940;4.024;2023-11-22T07:20:30;46.17;;;22.30;;
52274;SDS011;38228;50.940;4.024;2023-11-22T07:22:56;42.72;;;22.25;;
52274;SDS011;38228;50.940;4.024;2023-11-22T07:25:23;38.72;;;20.23;;
52274;SDS011;38228;50.940;4.024;2023-11-22T07:27:51;39.65;;;20.75;;
52274;SDS011;38228;50.940;4.024;2023-11-22T07:30:20;40.70;;;20.75;;
52274;SDS011;38228;50.940;4.024;2023-11-22T07:32:49;41.25;;;20.27;;
52274;SDS011;38228;50.940;4.024;2023-11-22T07:35:17;38.00;;;20.48;;
52274;SDS011;38228;50.940;4.024;2023-11-22T07:37:45;39.90;;;21.83;;
52274;SDS011;38228;50.940;4.024;2023-11-22T07:40:14;41.00;;;21.13;;
52274;SDS011;38228;50.940;4.024;2023-11-22T07:42:40;40.13;;;20.70;;
52274;SDS011;38228;50.940;4.024;2023-11-22T07:45:09;36.08;;;19.15;;
52274;SDS011;38228;50.940;4.024;2023-11-22T07:47:36;42.45;;;20.55;;
52274;SDS011;38228;50.940;4.024;2023-11-22T07:50:09;41.65;;;21.15;;
52274;SDS011;38228;50.940;4.024;2023-11-22T07:52:36;43.60;;;22.50;;
52274;SDS011;38228;50.940;4.024;2023-11-22T07:55:05;41.58;;;21.90;;
52274;SDS011;38228;50.940;4.024;2023-11-22T07:57:33;45.72;;;22.42;;
52274;SDS011;38228;50.940;4.024;2023-11-22T07:59:59;45.40;;;22.35;;
52274;SDS011;38228;50.940;4.024;2023-11-22T08:02:26;41.40;;;22.25;;
52274;SDS011;38228;50.940;4.024;2023-11-22T08:04:52;44.78;;;23.38;;
52274;SDS011;38228;50.940;4.024;2023-11-22T08:07:18;52.20;;;23.02;;
52274;SDS011;38228;50.940;4.024;2023-11-22T08:09:43;49.67;;;24.60;;
52274;SDS011;38228;50.940;4.024;2023-11-22T08:12:10;51.38;;;23.92;;
52274;SDS011;38228;50.940;4.024;2023-11-22T08:14:39;57.20;;;25.20;;
52274;SDS011;38228;50.940;4.024;2023-11-22T08:17:05;54.42;;;25.90;;
52274;SDS011;38228;50.940;4.024;2023-11-22T08:19:31;55.65;;;25.77;;
52274;SDS011;38228;50.940;4.024;2023-11-22T08:21:57;52.28;;;25.67;;
52274;SDS011;38228;50.940;4.024;2023-11-22T08:24:23;52.88;;;26.52;;
52274;SDS011;38228;50.940;4.024;2023-11-22T08:26:48;50.13;;;26.30;;
52274;SDS011;38228;50.940;4.024;2023-11-22T08:29:14;46.03;;;23.13;;
52274;SDS011;38228;50.940;4.024;2023-11-22T08:31:41;41.58;;;20.42;;
52274;SDS011;38228;50.940;4.024;2023-11-22T08:34:06;36.08;;;19.90;;
52274;SDS011;38228;50.940;4.024;2023-11-22T08:36:33;38.95;;;21.80;;
52274;SDS011;38228;50.940;4.024;2023-11-22T08:39:02;38.95;;;21.05;;
52274;SDS011;38228;50.940;4.024;2023-11-22T08:41:29;43.88;;;22.90;;
52274;SDS011;38228;50.940;4.024;2023-11-22T08:43:56;46.67;;;24.15;;
52274;SDS011;38228;50.940;4.024;2023-11-22T08:46:22;51.60;;;26.38;;
52274;SDS011;38228;50.940;4.024;2023-11-22T08:48:48;57.53;;;28.13;;
52274;SDS011;38228;50.940;4.024;2023-11-22T08:51:16;64.85;;;28.70;;
52274;SDS011;38228;50.940;4.024;2023-11-22T08:53:42;67.90;;;30.65;;
52274;SDS011;38228;50.940;4.024;2023-11-22T08:56:11;77.55;;;32.70;;
52274;SDS011;38228;50.940;4.024;2023-11-22T08:58:37;78.07;;;32.88;;
52274;SDS011;38228;50.940;4.024;2023-11-22T09:01:04;76.03;;;32.47;;
52274;SDS011;38228;50.940;4.024;2023-11-22T09:03:30;78.57;;;33.75;;
52274;SDS011;38228;50.940;4.024;2023-11-22T09:05:57;78.45;;;32.75;;
52274;SDS011;38228;50.940;4.024;2023-11-22T09:08:23;78.70;;;33.95;;
52274;SDS011;38228;50.940;4.024;2023-11-22T09:10:49;80.82;;;33.97;;
52274;SDS011;38228;50.940;4.024;2023-11-22T09:13:15;67.32;;;32.35;;
52274;SDS011;38228;50.940;4.024;2023-11-22T09:15:42;69.47;;;31.25;;
52274;SDS011;38228;50.940;4.024;2023-11-22T09:18:09;67.25;;;30.63;;
52274;SDS011;38228;50.940;4.024;2023-11-22T09:20:37;64.63;;;31.23;;
52274;SDS011;38228;50.940;4.024;2023-11-22T09:23:03;59.72;;;29.63;;
52274;SDS011;38228;50.940;4.024;2023-11-22T09:25:29;66.40;;;30.35;;
52274;SDS011;38228;50.940;4.024;2023-11-22T09:27:58;59.60;;;28.23;;
52274;SDS011;38228;50.940;4.024;2023-11-22T09:30:25;53.00;;;26.85;;
52274;SDS011;38228;50.940;4.024;2023-11-22T09:35:34;61.92;;;29.33;;
52274;SDS011;38228;50.940;4.024;2023-11-22T09:38:01;55.88;;;28.25;;
52274;SDS011;38228;50.940;4.024;2023-11-22T09:40:28;59.72;;;29.83;;
52274;SDS011;38228;50.940;4.024;2023-11-22T09:42:56;57.88;;;28.70;;
52274;SDS011;38228;50.940;4.024;2023-11-22T09:45:23;64.95;;;31.38;;
52274;SDS011;38228;50.940;4.024;2023-11-22T09:47:50;63.13;;;30.40;;
52274;SDS011;38228;50.940;4.024;2023-11-22T09:50:20;65.15;;;31.77;;
52274;SDS011;38228;50.940;4.024;2023-11-22T09:52:51;66.43;;;32.80;;
52274;SDS011;38228;50.940;4.024;2023-11-22T09:55:21;77.68;;;35.30;;
52274;SDS011;38228;50.940;4.024;2023-11-22T09:57:51;82.85;;;37.95;;
52274;SDS011;38228;50.940;4.024;2023-11-22T10:00:18;70.28;;;33.00;;
52274;SDS011;38228;50.940;4.024;2023-11-22T10:02:46;53.75;;;27.92;;
52274;SDS011;38228;50.940;4.024;2023-11-22T10:05:14;53.13;;;26.60;;
52274;SDS011;38228;50.940;4.024;2023-11-22T10:07:39;51.38;;;26.88;;
52274;SDS011;38228;50.940;4.024;2023-11-22T10:10:05;58.78;;;27.52;;
52274;SDS011;38228;50.940;4.024;2023-11-22T10:12:32;50.78;;;27.30;;
52274;SDS011;38228;50.940;4.024;2023-11-22T10:15:13;51.75;;;26.45;;
52274;SDS011;38228;50.940;4.024;2023-11-22T10:17:41;48.05;;;25.70;;
52274;SDS011;38228;50.940;4.024;2023-11-22T10:20:36;49.42;;;24.10;;
52274;SDS011;38228;50.940;4.024;2023-11-22T10:23:04;50.40;;;26.17;;
52274;SDS011;38228;50.940;4.024;2023-11-22T10:25:48;51.10;;;26.55;;
52274;SDS011;38228;50.940;4.024;2023-11-22T10:28:16;57.35;;;26.30;;
52274;SDS011;38228;50.940;4.024;2023-11-22T10:30:46;52.75;;;26.95;;
52274;SDS011;38228;50.940;4.024;2023-11-22T10:33:13;50.35;;;25.45;;
52274;SDS011;38228;50.940;4.024;2023-11-22T10:38:16;49.40;;;25.60;;
52274;SDS011;38228;50.940;4.024;2023-11-22T10:40:43;43.85;;;24.63;;
52274;SDS011;38228;50.940;4.024;2023-11-22T10:43:13;48.78;;;25.10;;
52274;SDS011;38228;50.940;4.024;2023-11-22T10:45:40;49.45;;;25.38;;
52274;SDS011;38228;50.940;4.024;2023-11-22T10:48:12;47.95;;;24.35;;
52274;SDS011;38228;50.940;4.024;2023-11-22T10:50:43;45.50;;;24.48;;
52274;SDS011;38228;50.940;4.024;2023-11-22T10:53:11;48.35;;;24.33;;
52274;SDS011;38228;50.940;4.024;2023-11-22T10:55:42;47.90;;;24.23;;
52274;SDS011;38228;50.940;4.024;2023-11-22T10:58:12;47.50;;;25.42;;
52274;SDS011;38228;50.940;4.024;2023-11-22T11:00:40;46.10;;;24.65;;
52274;SDS011;38228;50.940;4.024;2023-11-22T11:03:11;48.83;;;24.58;;
52274;SDS011;38228;50.940;4.024;2023-11-22T11:05:41;41.53;;;22.92;;
52274;SDS011;38228;50.940;4.024;2023-11-22T11:08:13;45.88;;;24.33;;
52274;SDS011;38228;50.940;4.024;2023-11-22T11:10:43;48.55;;;25.20;;
52274;SDS011;38228;50.940;4.024;2023-11-22T11:13:10;42.65;;;23.98;;
52274;SDS011;38228;50.940;4.024;2023-11-22T11:15:38;44.53;;;24.38;;
52274;SDS011;38228;50.940;4.024;2023-11-22T11:18:08;49.28;;;26.88;;
52274;SDS011;38228;50.940;4.024;2023-11-22T11:20:50;45.70;;;24.73;;
52274;SDS011;38228;50.940;4.024;2023-11-22T11:23:20;45.03;;;23.42;;
52274;SDS011;38228;50.940;4.024;2023-11-22T11:25:50;38.22;;;20.48;;
52274;SDS011;38228;50.940;4.024;2023-11-22T11:28:19;43.08;;;24.15;;
52274;SDS011;38228;50.940;4.024;2023-11-22T11:30:48;38.92;;;23.00;;
52274;SDS011;38228;50.940;4.024;2023-11-22T11:33:14;38.38;;;22.25;;
52274;SDS011;38228;50.940;4.024;2023-11-22T11:35:44;43.65;;;23.13;;
52274;SDS011;38228;50.940;4.024;2023-11-22T11:38:12;37.67;;;22.58;;
52274;SDS011;38228;50.940;4.024;2023-11-22T11:40:40;34.50;;;20.60;;
52274;SDS011;38228;50.940;4.024;2023-11-22T11:43:06;38.80;;;22.52;;
52274;SDS011;38228;50.940;4.024;2023-11-22T11:45:38;41.42;;;23.25;;
52274;SDS011;38228;50.940;4.024;2023-11-22T11:48:08;39.33;;;23.50;;
52274;SDS011;38228;50.940;4.024;2023-11-22T11:50:33;39.03;;;22.65;;
52274;SDS011;38228;50.940;4.024;2023-11-22T11:52:59;37.17;;;22.00;;
52274;SDS011;38228;50.940;4.024;2023-11-22T11:55:28;35.88;;;20.08;;
52274;SDS011;38228;50.940;4.024;2023-11-22T11:57:54;36.42;;;19.75;;
52274;SDS011;38228;50.940;4.024;2023-11-22T12:00:21;34.80;;;19.90;;
52274;SDS011;38228;50.940;4.024;2023-11-22T12:02:49;37.17;;;21.30;;
52274;SDS011;38228;50.940;4.024;2023-11-22T12:05:18;33.13;;;19.92;;
52274;SDS011;38228;50.940;4.024;2023-11-22T12:07:45;34.85;;;19.20;;
52274;SDS011;38228;50.940;4.024;2023-11-22T12:10:11;28.52;;;17.98;;
52274;SDS011;38228;50.940;4.024;2023-11-22T12:12:37;28.77;;;17.27;;
52274;SDS011;38228;50.940;4.024;2023-11-22T12:15:04;32.15;;;17.60;;
52274;SDS011;38228;50.940;4.024;2023-11-22T12:17:31;28.70;;;16.80;;
52274;SDS011;38228;50.940;4.024;2023-11-22T12:20:11;27.67;;;16.33;;
52274;SDS011;38228;50.940;4.024;2023-11-22T12:22:42;28.83;;;16.58;;
52274;SDS011;38228;50.940;4.024;2023-11-22T12:25:13;29.55;;;17.23;;
52274;SDS011;38228;50.940;4.024;2023-11-22T12:27:39;31.67;;;17.38;;
52274;SDS011;38228;50.940;4.024;2023-11-22T12:30:06;31.25;;;17.67;;
52274;SDS011;38228;50.940;4.024;2023-11-22T12:32:38;30.23;;;17.02;;
52274;SDS011;38228;50.940;4.024;2023-11-22T12:35:05;31.70;;;18.88;;
52274;SDS011;38228;50.940;4.024;2023-11-22T12:37:32;35.22;;;18.85;;
52274;SDS011;38228;50.940;4.024;2023-11-22T12:40:06;33.10;;;19.05;;
52274;SDS011;38228;50.940;4.024;2023-11-22T12:42:45;32.95;;;18.58;;
52274;SDS011;38228;50.940;4.024;2023-11-22T12:45:20;35.67;;;19.67;;
52274;SDS011;38228;50.940;4.024;2023-11-22T12:47:49;35.90;;;20.08;;
52274;SDS011;38228;50.940;4.024;2023-11-22T12:50:31;32.80;;;18.98;;
52274;SDS011;38228;50.940;4.024;2023-11-22T12:53:07;32.08;;;18.17;;
52274;SDS011;38228;50.940;4.024;2023-11-22T12:55:35;32.78;;;17.30;;
52274;SDS011;38228;50.940;4.024;2023-11-22T12:58:02;30.92;;;17.98;;
52274;SDS011;38228;50.940;4.024;2023-11-22T13:00:28;31.67;;;18.05;;
52274;SDS011;38228;50.940;4.024;2023-11-22T13:02:58;32.63;;;18.30;;
52274;SDS011;38228;50.940;4.024;2023-11-22T13:05:24;30.92;;;18.38;;
52274;SDS011;38228;50.940;4.024;2023-11-22T13:07:50;31.48;;;18.15;;
52274;SDS011;38228;50.940;4.024;2023-11-22T13:10:16;31.02;;;17.60;;
52274;SDS011;38228;50.940;4.024;2023-11-22T13:12:44;29.90;;;17.58;;
52274;SDS011;38228;50.940;4.024;2023-11-22T13:15:11;32.58;;;18.60;;
52274;SDS011;38228;50.940;4.024;2023-11-22T13:17:37;34.45;;;18.08;;
52274;SDS011;38228;50.940;4.024;2023-11-22T13:20:07;30.77;;;18.63;;
52274;SDS011;38228;50.940;4.024;2023-11-22T13:22:43;34.30;;;18.15;;
52274;SDS011;38228;50.940;4.024;2023-11-22T13:25:10;32.15;;;19.13;;
52274;SDS011;38228;50.940;4.024;2023-11-22T13:27:39;34.92;;;19.13;;
52274;SDS011;38228;50.940;4.024;2023-11-22T13:30:05;29.05;;;17.25;;
52274;SDS011;38228;50.940;4.024;2023-11-22T13:32:32;35.30;;;19.55;;
52274;SDS011;38228;50.940;4.024;2023-11-22T13:34:58;30.75;;;18.30;;
52274;SDS011;38228;50.940;4.024;2023-11-22T13:37:24;32.13;;;17.83;;
52274;SDS011;38228;50.940;4.024;2023-11-22T13:39:50;31.85;;;19.33;;
52274;SDS011;38228;50.940;4.024;2023-11-22T13:42:15;29.98;;;17.75;;
52274;SDS011;38228;50.940;4.024;2023-11-22T13:44:42;32.58;;;18.80;;
52274;SDS011;38228;50.940;4.024;2023-11-22T13:47:09;32.15;;;17.48;;
52274;SDS011;38228;50.940;4.024;2023-11-22T13:49:35;30.55;;;18.17;;
52274;SDS011;38228;50.940;4.024;2023-11-22T13:52:02;32.35;;;18.75;;
52274;SDS011;38228;50.940;4.024;2023-11-22T13:54:28;31.33;;;18.70;;
52274;SDS011;38228;50.940;4.024;2023-11-22T13:56:54;28.00;;;16.45;;
52274;SDS011;38228;50.940;4.024;2023-11-22T13:59:19;29.80;;;17.08;;
52274;SDS011;38228;50.940;4.024;2023-11-22T14:01:45;28.42;;;16.92;;
52274;SDS011;38228;50.940;4.024;2023-11-22T14:04:11;31.60;;;18.08;;
52274;SDS011;38228;50.940;4.024;2023-11-22T14:06:37;29.50;;;16.73;;
52274;SDS011;38228;50.940;4.024;2023-11-22T14:09:02;29.95;;;17.58;;
52274;SDS011;38228;50.940;4.024;2023-11-22T14:11:28;28.42;;;16.95;;
52274;SDS011;38228;50.940;4.024;2023-11-22T14:13:57;27.70;;;16.77;;
52274;SDS011;38228;50.940;4.024;2023-11-22T14:16:25;25.25;;;16.60;;
52274;SDS011;38228;50.940;4.024;2023-11-22T14:18:51;28.42;;;16.67;;
52274;SDS011;38228;50.940;4.024;2023-11-22T14:21:17;29.77;;;17.42;;
52274;SDS011;38228;50.940;4.024;2023-11-22T14:23:43;30.55;;;16.58;;
52274;SDS011;38228;50.940;4.024;2023-11-22T14:26:08;30.85;;;17.95;;
52274;SDS011;38228;50.940;4.024;2023-11-22T14:28:34;27.77;;;17.55;;